sensor_id;sensor_type;location;lat;lon;timestamp;P1;durP1;ratioP1;P2;durP2;ratioP2
61188;SDS011;47054;39.716;2.904;2022-07-10T00:00:03;5.10;;;2.50;;
61188;SDS011;47054;39.716;2.904;2022-07-10T00:02:56;6.15;;;2.60;;
61188;SDS011;47054;39.716;2.904;2022-07-10T00:05:41;4.45;;;2.67;;
61188;SDS011;47054;39.716;2.904;2022-07-10T00:08:27;7.90;;;2.72;;
61188;SDS011;47054;39.716;2.904;2022-07-10T00:11:11;6.43;;;2.60;;
61188;SDS011;47054;39.716;2.904;2022-07-10T00:13:55;9.75;;;2.80;;
61188;SDS011;47054;39.716;2.904;2022-07-10T00:16:40;7.82;;;2.90;;
61188;SDS011;47054;39.716;2.904;2022-07-10T00:19:24;9.38;;;2.78;;
61188;SDS011;47054;39.716;2.904;2022-07-10T00:22:09;8.45;;;2.67;;
61188;SDS011;47054;39.716;2.904;2022-07-10T00:24:53;6.63;;;2.33;;
61188;SDS011;47054;39.716;2.904;2022-07-10T00:27:38;12.63;;;2.50;;
61188;SDS011;47054;39.716;2.904;2022-07-10T00:30:23;5.78;;;2.65;;
61188;SDS011;47054;39.716;2.904;2022-07-10T00:33:07;6.13;;;2.83;;
61188;SDS011;47054;39.716;2.904;2022-07-10T00:35:52;5.53;;;2.50;;
61188;SDS011;47054;39.716;2.904;2022-07-10T00:38:36;8.73;;;2.85;;
61188;SDS011;47054;39.716;2.904;2022-07-10T00:41:21;6.82;;;2.55;;
61188;SDS011;47054;39.716;2.904;2022-07-10T00:44:06;7.07;;;2.55;;
61188;SDS011;47054;39.716;2.904;2022-07-10T00:46:50;8.00;;;2.72;;
61188;SDS011;47054;39.716;2.904;2022-07-10T00:49:35;7.47;;;2.80;;
61188;SDS011;47054;39.716;2.904;2022-07-10T00:52:21;6.70;;;2.83;;
61188;SDS011;47054;39.716;2.904;2022-07-10T00:55:06;4.65;;;2.25;;
61188;SDS011;47054;39.716;2.904;2022-07-10T00:57:52;3.95;;;2.50;;
61188;SDS011;47054;39.716;2.904;2022-07-10T01:00:37;6.32;;;2.75;;
61188;SDS011;47054;39.716;2.904;2022-07-10T01:03:22;8.00;;;2.85;;
61188;SDS011;47054;39.716;2.904;2022-07-10T01:06:06;8.57;;;3.28;;
61188;SDS011;47054;39.716;2.904;2022-07-10T01:08:50;13.85;;;4.70;;
61188;SDS011;47054;39.716;2.904;2022-07-10T01:11:35;12.73;;;6.28;;
61188;SDS011;47054;39.716;2.904;2022-07-10T01:14:21;11.90;;;4.68;;
61188;SDS011;47054;39.716;2.904;2022-07-10T01:17:06;9.57;;;3.47;;
61188;SDS011;47054;39.716;2.904;2022-07-10T01:19:53;7.07;;;3.22;;
61188;SDS011;47054;39.716;2.904;2022-07-10T01:22:37;8.45;;;3.20;;
61188;SDS011;47054;39.716;2.904;2022-07-10T01:25:22;9.38;;;3.33;;
61188;SDS011;47054;39.716;2.904;2022-07-10T01:28:08;4.85;;;2.70;;
61188;SDS011;47054;39.716;2.904;2022-07-10T01:30:54;5.03;;;3.00;;
61188;SDS011;47054;39.716;2.904;2022-07-10T01:33:40;7.47;;;3.15;;
61188;SDS011;47054;39.716;2.904;2022-07-10T01:36:25;7.65;;;2.80;;
61188;SDS011;47054;39.716;2.904;2022-07-10T01:39:12;8.70;;;2.78;;
61188;SDS011;47054;39.716;2.904;2022-07-10T01:41:57;5.90;;;2.90;;
61188;SDS011;47054;39.716;2.904;2022-07-10T01:44:42;4.72;;;2.75;;
61188;SDS011;47054;39.716;2.904;2022-07-10T01:47:27;7.13;;;3.20;;
61188;SDS011;47054;39.716;2.904;2022-07-10T01:50:12;7.75;;;2.72;;
61188;SDS011;47054;39.716;2.904;2022-07-10T01:52:57;8.80;;;2.85;;
61188;SDS011;47054;39.716;2.904;2022-07-10T01:55:41;9.07;;;2.80;;
61188;SDS011;47054;39.716;2.904;2022-07-10T01:58:26;7.90;;;2.80;;
61188;SDS011;47054;39.716;2.904;2022-07-10T02:01:11;7.45;;;2.97;;
61188;SDS011;47054;39.716;2.904;2022-07-10T02:03:55;5.55;;;3.10;;
61188;SDS011;47054;39.716;2.904;2022-07-10T02:06:59;4.07;;;2.60;;
61188;SDS011;47054;39.716;2.904;2022-07-10T02:09:44;6.32;;;2.72;;
61188;SDS011;47054;39.716;2.904;2022-07-10T02:12:29;7.93;;;2.75;;
61188;SDS011;47054;39.716;2.904;2022-07-10T02:15:14;6.75;;;3.05;;
61188;SDS011;47054;39.716;2.904;2022-07-10T02:17:58;8.80;;;3.03;;
61188;SDS011;47054;39.716;2.904;2022-07-10T02:20:43;7.35;;;3.10;;
61188;SDS011;47054;39.716;2.904;2022-07-10T02:23:27;5.28;;;2.92;;
61188;SDS011;47054;39.716;2.904;2022-07-10T02:26:12;9.02;;;2.72;;
61188;SDS011;47054;39.716;2.904;2022-07-10T02:28:57;4.80;;;2.85;;
61188;SDS011;47054;39.716;2.904;2022-07-10T02:31:41;6.40;;;2.70;;
61188;SDS011;47054;39.716;2.904;2022-07-10T02:34:26;4.50;;;2.95;;
61188;SDS011;47054;39.716;2.904;2022-07-10T02:37:11;9.95;;;2.80;;
61188;SDS011;47054;39.716;2.904;2022-07-10T02:39:55;7.22;;;2.72;;
61188;SDS011;47054;39.716;2.904;2022-07-10T02:42:41;49.33;;;20.92;;
61188;SDS011;47054;39.716;2.904;2022-07-10T02:45:25;85.05;;;32.63;;
61188;SDS011;47054;39.716;2.904;2022-07-10T02:48:10;64.10;;;24.90;;
61188;SDS011;47054;39.716;2.904;2022-07-10T02:50:54;43.08;;;18.60;;
61188;SDS011;47054;39.716;2.904;2022-07-10T02:53:39;34.38;;;15.55;;
61188;SDS011;47054;39.716;2.904;2022-07-10T02:56:23;25.55;;;12.40;;
61188;SDS011;47054;39.716;2.904;2022-07-10T02:59:07;15.07;;;8.05;;
61188;SDS011;47054;39.716;2.904;2022-07-10T03:01:52;12.98;;;6.20;;
61188;SDS011;47054;39.716;2.904;2022-07-10T03:04:36;11.25;;;5.32;;
61188;SDS011;47054;39.716;2.904;2022-07-10T03:07:21;9.52;;;4.60;;
61188;SDS011;47054;39.716;2.904;2022-07-10T03:10:06;8.50;;;4.00;;
61188;SDS011;47054;39.716;2.904;2022-07-10T03:12:53;7.30;;;3.25;;
61188;SDS011;47054;39.716;2.904;2022-07-10T03:15:38;7.10;;;3.05;;
61188;SDS011;47054;39.716;2.904;2022-07-10T03:18:22;7.03;;;2.78;;
61188;SDS011;47054;39.716;2.904;2022-07-10T03:21:07;5.40;;;2.67;;
61188;SDS011;47054;39.716;2.904;2022-07-10T03:23:51;6.53;;;2.92;;
61188;SDS011;47054;39.716;2.904;2022-07-10T03:26:36;3.90;;;2.80;;
61188;SDS011;47054;39.716;2.904;2022-07-10T03:29:20;4.45;;;2.75;;
61188;SDS011;47054;39.716;2.904;2022-07-10T03:32:05;9.80;;;2.60;;
61188;SDS011;47054;39.716;2.904;2022-07-10T03:34:50;6.70;;;2.60;;
61188;SDS011;47054;39.716;2.904;2022-07-10T03:37:35;5.97;;;2.55;;
61188;SDS011;47054;39.716;2.904;2022-07-10T03:40:19;6.10;;;2.55;;
61188;SDS011;47054;39.716;2.904;2022-07-10T03:43:04;5.72;;;2.40;;
61188;SDS011;47054;39.716;2.904;2022-07-10T03:45:48;4.68;;;2.53;;
61188;SDS011;47054;39.716;2.904;2022-07-10T03:48:33;3.75;;;2.35;;
61188;SDS011;47054;39.716;2.904;2022-07-10T03:51:18;5.63;;;2.70;;
61188;SDS011;47054;39.716;2.904;2022-07-10T03:54:02;4.32;;;2.45;;
61188;SDS011;47054;39.716;2.904;2022-07-10T03:56:46;7.47;;;2.67;;
61188;SDS011;47054;39.716;2.904;2022-07-10T03:59:50;4.40;;;2.20;;
61188;SDS011;47054;39.716;2.904;2022-07-10T04:02:34;4.90;;;2.28;;
61188;SDS011;47054;39.716;2.904;2022-07-10T04:05:19;5.05;;;2.25;;
61188;SDS011;47054;39.716;2.904;2022-07-10T04:08:03;5.32;;;2.45;;
61188;SDS011;47054;39.716;2.904;2022-07-10T04:10:48;3.17;;;2.30;;
61188;SDS011;47054;39.716;2.904;2022-07-10T04:13:33;3.53;;;2.35;;
61188;SDS011;47054;39.716;2.904;2022-07-10T04:16:18;6.75;;;2.58;;
61188;SDS011;47054;39.716;2.904;2022-07-10T04:19:02;6.40;;;2.70;;
61188;SDS011;47054;39.716;2.904;2022-07-10T04:21:47;4.40;;;2.50;;
61188;SDS011;47054;39.716;2.904;2022-07-10T04:24:32;5.72;;;2.60;;
61188;SDS011;47054;39.716;2.904;2022-07-10T04:27:16;3.42;;;2.47;;
61188;SDS011;47054;39.716;2.904;2022-07-10T04:30:01;9.10;;;2.45;;
61188;SDS011;47054;39.716;2.904;2022-07-10T04:32:46;5.25;;;2.30;;
61188;SDS011;47054;39.716;2.904;2022-07-10T04:35:31;4.07;;;2.10;;
61188;SDS011;47054;39.716;2.904;2022-07-10T04:38:15;5.55;;;2.78;;
61188;SDS011;47054;39.716;2.904;2022-07-10T04:40:59;6.28;;;2.38;;
61188;SDS011;47054;39.716;2.904;2022-07-10T04:43:44;4.20;;;2.30;;
61188;SDS011;47054;39.716;2.904;2022-07-10T04:46:29;4.78;;;2.40;;
61188;SDS011;47054;39.716;2.904;2022-07-10T04:49:14;6.55;;;2.92;;
61188;SDS011;47054;39.716;2.904;2022-07-10T04:51:58;4.93;;;2.70;;
61188;SDS011;47054;39.716;2.904;2022-07-10T04:54:43;8.60;;;4.80;;
61188;SDS011;47054;39.716;2.904;2022-07-10T04:57:27;12.50;;;5.05;;
61188;SDS011;47054;39.716;2.904;2022-07-10T05:00:12;14.90;;;6.70;;
61188;SDS011;47054;39.716;2.904;2022-07-10T05:02:57;11.18;;;6.65;;
61188;SDS011;47054;39.716;2.904;2022-07-10T05:05:41;15.80;;;7.50;;
61188;SDS011;47054;39.716;2.904;2022-07-10T05:08:26;18.60;;;7.85;;
61188;SDS011;47054;39.716;2.904;2022-07-10T05:11:11;19.80;;;8.45;;
61188;SDS011;47054;39.716;2.904;2022-07-10T05:13:56;18.02;;;7.60;;
61188;SDS011;47054;39.716;2.904;2022-07-10T05:16:40;13.35;;;7.22;;
61188;SDS011;47054;39.716;2.904;2022-07-10T05:19:25;14.20;;;7.13;;
61188;SDS011;47054;39.716;2.904;2022-07-10T05:22:09;18.08;;;7.78;;
61188;SDS011;47054;39.716;2.904;2022-07-10T05:24:54;12.13;;;6.47;;
61188;SDS011;47054;39.716;2.904;2022-07-10T05:27:39;12.77;;;6.25;;
61188;SDS011;47054;39.716;2.904;2022-07-10T05:30:23;12.10;;;7.40;;
61188;SDS011;47054;39.716;2.904;2022-07-10T05:33:07;18.40;;;7.38;;
61188;SDS011;47054;39.716;2.904;2022-07-10T05:35:52;17.65;;;9.82;;
61188;SDS011;47054;39.716;2.904;2022-07-10T05:38:36;21.08;;;9.20;;
61188;SDS011;47054;39.716;2.904;2022-07-10T05:41:21;23.50;;;12.20;;
61188;SDS011;47054;39.716;2.904;2022-07-10T05:44:06;19.05;;;8.73;;
61188;SDS011;47054;39.716;2.904;2022-07-10T05:46:50;14.07;;;7.53;;
61188;SDS011;47054;39.716;2.904;2022-07-10T05:49:35;13.63;;;6.80;;
61188;SDS011;47054;39.716;2.904;2022-07-10T05:52:19;11.88;;;5.93;;
61188;SDS011;47054;39.716;2.904;2022-07-10T05:55:04;23.25;;;6.10;;
61188;SDS011;47054;39.716;2.904;2022-07-10T05:57:49;9.30;;;5.78;;
61188;SDS011;47054;39.716;2.904;2022-07-10T06:00:34;9.75;;;4.30;;
61188;SDS011;47054;39.716;2.904;2022-07-10T06:03:19;11.55;;;4.40;;
61188;SDS011;47054;39.716;2.904;2022-07-10T06:06:05;10.55;;;4.05;;
61188;SDS011;47054;39.716;2.904;2022-07-10T06:08:49;7.97;;;3.92;;
61188;SDS011;47054;39.716;2.904;2022-07-10T06:11:34;10.07;;;4.07;;
61188;SDS011;47054;39.716;2.904;2022-07-10T06:14:18;6.90;;;3.58;;
61188;SDS011;47054;39.716;2.904;2022-07-10T06:17:03;9.13;;;3.60;;
61188;SDS011;47054;39.716;2.904;2022-07-10T06:19:48;7.50;;;3.97;;
61188;SDS011;47054;39.716;2.904;2022-07-10T06:22:32;9.73;;;4.22;;
61188;SDS011;47054;39.716;2.904;2022-07-10T06:25:17;12.27;;;6.80;;
61188;SDS011;47054;39.716;2.904;2022-07-10T06:28:02;9.77;;;5.35;;
61188;SDS011;47054;39.716;2.904;2022-07-10T06:30:47;11.13;;;5.28;;
61188;SDS011;47054;39.716;2.904;2022-07-10T06:33:32;13.10;;;5.10;;
61188;SDS011;47054;39.716;2.904;2022-07-10T06:36:19;9.00;;;4.63;;
61188;SDS011;47054;39.716;2.904;2022-07-10T06:39:03;8.60;;;5.00;;
61188;SDS011;47054;39.716;2.904;2022-07-10T06:41:48;7.55;;;4.90;;
61188;SDS011;47054;39.716;2.904;2022-07-10T06:44:33;7.30;;;4.47;;
61188;SDS011;47054;39.716;2.904;2022-07-10T06:47:18;10.63;;;4.68;;
61188;SDS011;47054;39.716;2.904;2022-07-10T06:50:22;6.90;;;4.30;;
61188;SDS011;47054;39.716;2.904;2022-07-10T06:53:09;12.05;;;4.78;;
61188;SDS011;47054;39.716;2.904;2022-07-10T06:55:53;9.98;;;5.00;;
61188;SDS011;47054;39.716;2.904;2022-07-10T06:58:38;10.90;;;5.10;;
61188;SDS011;47054;39.716;2.904;2022-07-10T07:01:23;12.63;;;5.78;;
61188;SDS011;47054;39.716;2.904;2022-07-10T07:04:07;13.07;;;5.72;;
61188;SDS011;47054;39.716;2.904;2022-07-10T07:06:52;14.20;;;6.32;;
61188;SDS011;47054;39.716;2.904;2022-07-10T07:09:37;13.80;;;6.03;;
61188;SDS011;47054;39.716;2.904;2022-07-10T07:12:21;20.08;;;6.55;;
61188;SDS011;47054;39.716;2.904;2022-07-10T07:15:05;14.57;;;6.05;;
61188;SDS011;47054;39.716;2.904;2022-07-10T07:17:51;14.40;;;5.03;;
61188;SDS011;47054;39.716;2.904;2022-07-10T07:20:51;11.18;;;5.50;;
61188;SDS011;47054;39.716;2.904;2022-07-10T07:23:54;13.80;;;6.13;;
61188;SDS011;47054;39.716;2.904;2022-07-10T07:26:38;17.17;;;6.30;;
61188;SDS011;47054;39.716;2.904;2022-07-10T07:29:23;8.95;;;4.57;;
61188;SDS011;47054;39.716;2.904;2022-07-10T07:32:08;7.75;;;4.70;;
61188;SDS011;47054;39.716;2.904;2022-07-10T07:34:52;8.07;;;4.18;;
61188;SDS011;47054;39.716;2.904;2022-07-10T07:37:37;7.10;;;4.10;;
61188;SDS011;47054;39.716;2.904;2022-07-10T07:40:23;9.07;;;3.42;;
61188;SDS011;47054;39.716;2.904;2022-07-10T07:43:08;5.95;;;3.20;;
61188;SDS011;47054;39.716;2.904;2022-07-10T07:45:52;6.00;;;3.25;;
61188;SDS011;47054;39.716;2.904;2022-07-10T07:48:37;7.70;;;3.40;;
61188;SDS011;47054;39.716;2.904;2022-07-10T07:51:21;7.90;;;3.40;;
61188;SDS011;47054;39.716;2.904;2022-07-10T07:54:06;8.30;;;3.50;;
61188;SDS011;47054;39.716;2.904;2022-07-10T07:56:50;8.18;;;3.22;;
61188;SDS011;47054;39.716;2.904;2022-07-10T07:59:35;5.95;;;3.75;;
61188;SDS011;47054;39.716;2.904;2022-07-10T08:02:20;6.25;;;3.30;;
61188;SDS011;47054;39.716;2.904;2022-07-10T08:05:05;6.35;;;3.40;;
61188;SDS011;47054;39.716;2.904;2022-07-10T08:07:52;6.82;;;3.38;;
61188;SDS011;47054;39.716;2.904;2022-07-10T08:10:38;6.18;;;3.20;;
61188;SDS011;47054;39.716;2.904;2022-07-10T08:13:23;14.02;;;3.35;;
61188;SDS011;47054;39.716;2.904;2022-07-10T08:16:07;8.75;;;3.63;;
61188;SDS011;47054;39.716;2.904;2022-07-10T08:18:52;5.70;;;3.20;;
61188;SDS011;47054;39.716;2.904;2022-07-10T08:21:36;6.50;;;2.95;;
61188;SDS011;47054;39.716;2.904;2022-07-10T08:24:21;9.95;;;3.40;;
61188;SDS011;47054;39.716;2.904;2022-07-10T08:27:06;6.18;;;2.85;;
61188;SDS011;47054;39.716;2.904;2022-07-10T08:29:51;7.97;;;2.72;;
61188;SDS011;47054;39.716;2.904;2022-07-10T08:32:39;4.80;;;3.13;;
61188;SDS011;47054;39.716;2.904;2022-07-10T08:35:24;6.60;;;3.42;;
61188;SDS011;47054;39.716;2.904;2022-07-10T08:38:09;8.95;;;3.05;;
61188;SDS011;47054;39.716;2.904;2022-07-10T08:40:54;8.23;;;3.28;;
61188;SDS011;47054;39.716;2.904;2022-07-10T08:43:41;4.72;;;2.53;;
61188;SDS011;47054;39.716;2.904;2022-07-10T08:46:26;4.82;;;2.33;;
61188;SDS011;47054;39.716;2.904;2022-07-10T08:49:11;6.00;;;2.80;;
61188;SDS011;47054;39.716;2.904;2022-07-10T08:52:05;5.68;;;2.80;;
61188;SDS011;47054;39.716;2.904;2022-07-10T08:54:52;4.97;;;2.85;;
61188;SDS011;47054;39.716;2.904;2022-07-10T08:57:37;5.15;;;2.65;;
61188;SDS011;47054;39.716;2.904;2022-07-10T09:00:23;4.00;;;2.42;;
61188;SDS011;47054;39.716;2.904;2022-07-10T09:03:08;12.18;;;2.83;;
61188;SDS011;47054;39.716;2.904;2022-07-10T09:05:53;6.78;;;2.92;;
61188;SDS011;47054;39.716;2.904;2022-07-10T09:08:38;4.53;;;2.78;;
61188;SDS011;47054;39.716;2.904;2022-07-10T09:11:23;5.20;;;2.70;;
61188;SDS011;47054;39.716;2.904;2022-07-10T09:14:10;5.47;;;2.53;;
61188;SDS011;47054;39.716;2.904;2022-07-10T09:16:56;3.55;;;2.20;;
61188;SDS011;47054;39.716;2.904;2022-07-10T09:19:40;6.43;;;2.38;;
61188;SDS011;47054;39.716;2.904;2022-07-10T09:22:25;4.32;;;2.05;;
61188;SDS011;47054;39.716;2.904;2022-07-10T09:25:13;7.90;;;2.58;;
61188;SDS011;47054;39.716;2.904;2022-07-10T09:27:58;8.10;;;2.67;;
61188;SDS011;47054;39.716;2.904;2022-07-10T09:30:44;6.90;;;3.50;;
61188;SDS011;47054;39.716;2.904;2022-07-10T09:33:29;5.22;;;2.90;;
61188;SDS011;47054;39.716;2.904;2022-07-10T09:36:15;6.95;;;2.40;;
61188;SDS011;47054;39.716;2.904;2022-07-10T09:39:00;5.40;;;2.33;;
61188;SDS011;47054;39.716;2.904;2022-07-10T09:41:46;3.50;;;2.20;;
61188;SDS011;47054;39.716;2.904;2022-07-10T09:44:30;4.13;;;2.28;;
61188;SDS011;47054;39.716;2.904;2022-07-10T09:47:24;3.35;;;2.20;;
61188;SDS011;47054;39.716;2.904;2022-07-10T09:50:22;3.22;;;2.10;;
61188;SDS011;47054;39.716;2.904;2022-07-10T09:53:14;7.93;;;2.50;;
61188;SDS011;47054;39.716;2.904;2022-07-10T09:55:59;5.55;;;2.28;;
61188;SDS011;47054;39.716;2.904;2022-07-10T09:58:45;4.13;;;2.40;;
61188;SDS011;47054;39.716;2.904;2022-07-10T10:01:34;8.95;;;2.17;;
61188;SDS011;47054;39.716;2.904;2022-07-10T10:04:22;7.68;;;2.80;;
61188;SDS011;47054;39.716;2.904;2022-07-10T10:07:09;5.03;;;2.58;;
61188;SDS011;47054;39.716;2.904;2022-07-10T10:09:58;10.10;;;2.50;;
61188;SDS011;47054;39.716;2.904;2022-07-10T10:12:49;7.78;;;3.38;;
61188;SDS011;47054;39.716;2.904;2022-07-10T10:15:41;5.78;;;2.63;;
61188;SDS011;47054;39.716;2.904;2022-07-10T10:18:27;5.65;;;2.40;;
61188;SDS011;47054;39.716;2.904;2022-07-10T10:21:13;5.07;;;2.60;;
61188;SDS011;47054;39.716;2.904;2022-07-10T10:23:58;9.20;;;3.17;;
61188;SDS011;47054;39.716;2.904;2022-07-10T10:26:45;5.18;;;2.92;;
61188;SDS011;47054;39.716;2.904;2022-07-10T10:29:30;6.93;;;2.70;;
61188;SDS011;47054;39.716;2.904;2022-07-10T10:32:15;4.65;;;2.80;;
61188;SDS011;47054;39.716;2.904;2022-07-10T10:35:00;4.97;;;3.00;;
61188;SDS011;47054;39.716;2.904;2022-07-10T10:37:45;16.10;;;5.57;;
61188;SDS011;47054;39.716;2.904;2022-07-10T10:40:35;13.15;;;5.25;;
61188;SDS011;47054;39.716;2.904;2022-07-10T10:43:21;5.55;;;3.17;;
61188;SDS011;47054;39.716;2.904;2022-07-10T10:46:23;6.28;;;3.50;;
61188;SDS011;47054;39.716;2.904;2022-07-10T10:49:09;5.63;;;2.90;;
61188;SDS011;47054;39.716;2.904;2022-07-10T10:57:44;4.82;;;2.35;;
61188;SDS011;47054;39.716;2.904;2022-07-10T11:00:32;7.47;;;2.80;;
61188;SDS011;47054;39.716;2.904;2022-07-10T11:03:22;8.90;;;3.08;;
61188;SDS011;47054;39.716;2.904;2022-07-10T11:06:12;7.55;;;3.10;;
61188;SDS011;47054;39.716;2.904;2022-07-10T11:08:58;4.10;;;2.60;;
61188;SDS011;47054;39.716;2.904;2022-07-10T11:11:44;4.97;;;2.75;;
61188;SDS011;47054;39.716;2.904;2022-07-10T11:14:45;4.88;;;2.70;;
61188;SDS011;47054;39.716;2.904;2022-07-10T11:17:33;6.05;;;2.67;;
61188;SDS011;47054;39.716;2.904;2022-07-10T11:20:18;4.35;;;2.75;;
61188;SDS011;47054;39.716;2.904;2022-07-10T11:26:20;9.40;;;2.63;;
61188;SDS011;47054;39.716;2.904;2022-07-10T11:29:08;5.15;;;2.60;;
61188;SDS011;47054;39.716;2.904;2022-07-10T11:31:53;5.97;;;2.60;;
61188;SDS011;47054;39.716;2.904;2022-07-10T11:34:38;5.47;;;2.63;;
61188;SDS011;47054;39.716;2.904;2022-07-10T11:37:23;7.63;;;3.13;;
61188;SDS011;47054;39.716;2.904;2022-07-10T11:40:12;7.25;;;2.30;;
61188;SDS011;47054;39.716;2.904;2022-07-10T11:42:57;8.10;;;2.85;;
61188;SDS011;47054;39.716;2.904;2022-07-10T11:45:43;4.43;;;2.63;;
61188;SDS011;47054;39.716;2.904;2022-07-10T11:48:28;5.53;;;2.83;;
61188;SDS011;47054;39.716;2.904;2022-07-10T11:51:16;5.53;;;2.80;;
61188;SDS011;47054;39.716;2.904;2022-07-10T11:54:07;5.30;;;2.85;;
61188;SDS011;47054;39.716;2.904;2022-07-10T11:57:05;5.18;;;2.80;;
61188;SDS011;47054;39.716;2.904;2022-07-10T11:59:52;4.30;;;2.70;;
61188;SDS011;47054;39.716;2.904;2022-07-10T12:02:37;6.32;;;2.50;;
61188;SDS011;47054;39.716;2.904;2022-07-10T12:08:16;7.57;;;2.95;;
61188;SDS011;47054;39.716;2.904;2022-07-10T12:11:10;5.65;;;3.00;;
61188;SDS011;47054;39.716;2.904;2022-07-10T12:14:08;7.22;;;2.53;;
61188;SDS011;47054;39.716;2.904;2022-07-10T12:16:53;6.20;;;2.88;;
61188;SDS011;47054;39.716;2.904;2022-07-10T12:19:38;8.68;;;2.88;;
61188;SDS011;47054;39.716;2.904;2022-07-10T12:22:23;4.97;;;2.60;;
61188;SDS011;47054;39.716;2.904;2022-07-10T12:25:08;5.13;;;2.55;;
61188;SDS011;47054;39.716;2.904;2022-07-10T12:27:54;9.07;;;2.88;;
61188;SDS011;47054;39.716;2.904;2022-07-10T12:30:42;11.30;;;3.10;;
61188;SDS011;47054;39.716;2.904;2022-07-10T12:33:28;6.10;;;2.60;;
61188;SDS011;47054;39.716;2.904;2022-07-10T12:36:14;5.13;;;2.50;;
61188;SDS011;47054;39.716;2.904;2022-07-10T12:39:00;5.43;;;2.53;;
61188;SDS011;47054;39.716;2.904;2022-07-10T12:44:45;5.32;;;2.40;;
61188;SDS011;47054;39.716;2.904;2022-07-10T12:47:42;5.65;;;2.38;;
61188;SDS011;47054;39.716;2.904;2022-07-10T12:50:29;7.60;;;2.55;;
61188;SDS011;47054;39.716;2.904;2022-07-10T12:53:13;7.90;;;2.35;;
61188;SDS011;47054;39.716;2.904;2022-07-10T12:56:02;6.55;;;2.40;;
61188;SDS011;47054;39.716;2.904;2022-07-10T12:58:47;4.80;;;2.70;;
61188;SDS011;47054;39.716;2.904;2022-07-10T13:01:41;8.52;;;2.75;;
61188;SDS011;47054;39.716;2.904;2022-07-10T13:04:27;4.45;;;2.30;;
61188;SDS011;47054;39.716;2.904;2022-07-10T13:07:12;3.42;;;2.40;;
61188;SDS011;47054;39.716;2.904;2022-07-10T13:10:01;3.67;;;2.10;;
61188;SDS011;47054;39.716;2.904;2022-07-10T13:12:46;8.45;;;2.53;;
61188;SDS011;47054;39.716;2.904;2022-07-10T13:15:31;5.32;;;2.20;;
61188;SDS011;47054;39.716;2.904;2022-07-10T13:21:05;3.65;;;2.20;;
61188;SDS011;47054;39.716;2.904;2022-07-10T13:23:50;5.18;;;2.30;;
61188;SDS011;47054;39.716;2.904;2022-07-10T13:26:34;5.00;;;2.10;;
61188;SDS011;47054;39.716;2.904;2022-07-10T13:29:19;3.55;;;2.35;;
61188;SDS011;47054;39.716;2.904;2022-07-10T13:32:03;4.25;;;2.30;;
61188;SDS011;47054;39.716;2.904;2022-07-10T13:34:48;7.53;;;2.63;;
61188;SDS011;47054;39.716;2.904;2022-07-10T13:37:32;2.95;;;2.10;;
61188;SDS011;47054;39.716;2.904;2022-07-10T13:40:17;4.05;;;2.30;;
61188;SDS011;47054;39.716;2.904;2022-07-10T13:43:02;6.30;;;2.38;;
61188;SDS011;47054;39.716;2.904;2022-07-10T13:45:47;4.15;;;2.60;;
61188;SDS011;47054;39.716;2.904;2022-07-10T13:48:32;5.70;;;2.53;;
61188;SDS011;47054;39.716;2.904;2022-07-10T13:51:16;4.93;;;2.30;;
61188;SDS011;47054;39.716;2.904;2022-07-10T13:54:01;3.55;;;2.25;;
61188;SDS011;47054;39.716;2.904;2022-07-10T13:56:46;6.13;;;2.88;;
61188;SDS011;47054;39.716;2.904;2022-07-10T13:59:30;7.10;;;2.60;;
61188;SDS011;47054;39.716;2.904;2022-07-10T14:02:14;4.75;;;2.33;;
61188;SDS011;47054;39.716;2.904;2022-07-10T14:04:59;3.83;;;2.22;;
61188;SDS011;47054;39.716;2.904;2022-07-10T14:07:45;5.40;;;3.05;;
61188;SDS011;47054;39.716;2.904;2022-07-10T14:10:29;7.57;;;2.60;;
61188;SDS011;47054;39.716;2.904;2022-07-10T14:13:14;3.67;;;2.42;;
61188;SDS011;47054;39.716;2.904;2022-07-10T14:15:59;4.03;;;2.40;;
61188;SDS011;47054;39.716;2.904;2022-07-10T14:18:43;5.07;;;2.35;;
61188;SDS011;47054;39.716;2.904;2022-07-10T14:21:28;6.63;;;2.10;;
61188;SDS011;47054;39.716;2.904;2022-07-10T14:24:13;6.00;;;2.60;;
61188;SDS011;47054;39.716;2.904;2022-07-10T14:26:57;4.50;;;2.45;;
61188;SDS011;47054;39.716;2.904;2022-07-10T14:29:42;4.75;;;2.60;;
61188;SDS011;47054;39.716;2.904;2022-07-10T14:32:26;6.07;;;2.75;;
61188;SDS011;47054;39.716;2.904;2022-07-10T14:35:11;3.55;;;2.50;;
61188;SDS011;47054;39.716;2.904;2022-07-10T14:37:55;5.28;;;3.42;;
61188;SDS011;47054;39.716;2.904;2022-07-10T14:40:40;5.32;;;2.60;;
61188;SDS011;47054;39.716;2.904;2022-07-10T14:43:25;4.05;;;2.70;;
61188;SDS011;47054;39.716;2.904;2022-07-10T14:46:10;4.07;;;2.63;;
61188;SDS011;47054;39.716;2.904;2022-07-10T14:48:54;4.10;;;2.42;;
61188;SDS011;47054;39.716;2.904;2022-07-10T14:51:39;5.47;;;2.50;;
61188;SDS011;47054;39.716;2.904;2022-07-10T14:54:23;3.53;;;2.15;;
61188;SDS011;47054;39.716;2.904;2022-07-10T14:57:08;3.25;;;2.60;;
61188;SDS011;47054;39.716;2.904;2022-07-10T14:59:53;5.30;;;2.55;;
61188;SDS011;47054;39.716;2.904;2022-07-10T15:02:37;4.40;;;2.38;;
61188;SDS011;47054;39.716;2.904;2022-07-10T15:05:22;6.32;;;2.38;;
61188;SDS011;47054;39.716;2.904;2022-07-10T15:08:07;4.32;;;2.25;;
61188;SDS011;47054;39.716;2.904;2022-07-10T15:10:52;4.85;;;2.47;;
61188;SDS011;47054;39.716;2.904;2022-07-10T15:13:36;8.00;;;3.00;;
61188;SDS011;47054;39.716;2.904;2022-07-10T15:16:20;8.45;;;2.83;;
61188;SDS011;47054;39.716;2.904;2022-07-10T15:19:05;4.93;;;2.60;;
61188;SDS011;47054;39.716;2.904;2022-07-10T15:21:50;7.63;;;2.80;;
61188;SDS011;47054;39.716;2.904;2022-07-10T15:24:34;6.00;;;2.20;;
61188;SDS011;47054;39.716;2.904;2022-07-10T15:27:19;9.23;;;2.70;;
61188;SDS011;47054;39.716;2.904;2022-07-10T15:30:03;5.90;;;2.30;;
61188;SDS011;47054;39.716;2.904;2022-07-10T15:32:48;5.53;;;2.47;;
61188;SDS011;47054;39.716;2.904;2022-07-10T15:35:33;4.40;;;2.38;;
61188;SDS011;47054;39.716;2.904;2022-07-10T15:38:18;3.60;;;2.30;;
61188;SDS011;47054;39.716;2.904;2022-07-10T15:41:04;5.65;;;2.40;;
61188;SDS011;47054;39.716;2.904;2022-07-10T15:43:48;3.53;;;2.22;;
61188;SDS011;47054;39.716;2.904;2022-07-10T15:46:33;4.22;;;2.22;;
61188;SDS011;47054;39.716;2.904;2022-07-10T15:49:17;4.35;;;2.47;;
61188;SDS011;47054;39.716;2.904;2022-07-10T15:52:02;3.88;;;2.30;;
61188;SDS011;47054;39.716;2.904;2022-07-10T15:54:47;3.90;;;2.22;;
61188;SDS011;47054;39.716;2.904;2022-07-10T15:57:31;6.00;;;2.50;;
61188;SDS011;47054;39.716;2.904;2022-07-10T16:00:16;4.30;;;2.30;;
61188;SDS011;47054;39.716;2.904;2022-07-10T16:03:01;6.28;;;2.65;;
61188;SDS011;47054;39.716;2.904;2022-07-10T16:05:46;4.18;;;2.15;;
61188;SDS011;47054;39.716;2.904;2022-07-10T16:08:30;5.45;;;2.38;;
61188;SDS011;47054;39.716;2.904;2022-07-10T16:11:15;5.28;;;2.17;;
61188;SDS011;47054;39.716;2.904;2022-07-10T16:14:01;4.57;;;2.13;;
61188;SDS011;47054;39.716;2.904;2022-07-10T16:16:46;3.53;;;2.10;;
61188;SDS011;47054;39.716;2.904;2022-07-10T16:19:30;4.70;;;2.20;;
61188;SDS011;47054;39.716;2.904;2022-07-10T16:22:15;4.90;;;2.17;;
61188;SDS011;47054;39.716;2.904;2022-07-10T16:24:59;4.45;;;2.10;;
61188;SDS011;47054;39.716;2.904;2022-07-10T16:28:23;5.85;;;2.30;;
61188;SDS011;47054;39.716;2.904;2022-07-10T16:31:07;4.10;;;2.30;;
61188;SDS011;47054;39.716;2.904;2022-07-10T16:33:52;6.90;;;2.40;;
61188;SDS011;47054;39.716;2.904;2022-07-10T16:36:37;3.08;;;2.05;;
61188;SDS011;47054;39.716;2.904;2022-07-10T16:39:22;3.28;;;2.03;;
61188;SDS011;47054;39.716;2.904;2022-07-10T16:42:06;5.88;;;2.28;;
61188;SDS011;47054;39.716;2.904;2022-07-10T16:44:51;4.25;;;2.30;;
61188;SDS011;47054;39.716;2.904;2022-07-10T16:47:35;4.32;;;2.33;;
61188;SDS011;47054;39.716;2.904;2022-07-10T16:50:19;4.10;;;2.08;;
61188;SDS011;47054;39.716;2.904;2022-07-10T16:53:04;6.70;;;2.50;;